Time;durP1;ratioP1;P1;durP2;ratioP2;P2;SDS_P1;SDS_P2;PMS_P1;PMS_P2;Temp;Humidity;BMP_temperature;BMP_pressure;BME280_temperature;BME280_humidity;BME280_pressure;Samples;Min_cycle;Max_cycle;Signal;HPM_P1;HPM_P2
2021/12/13 00:01:26;;;;;;;14.60;8.98;;;11.40;94.00;;;;;;5065554;28;20077;-72
2021/12/13 00:04:05;;;;;;;17.17;8.93;;;11.40;94.10;;;;;;5065601;28;20025;-72
2021/12/13 00:06:50;;;;;;;13.27;8.27;;;11.40;94.10;;;;;;5048371;28;20506;-72
2021/12/13 00:09:19;;;;;;;16.23;8.30;;;11.40;94.10;;;;;;5067975;28;20056;-72
2021/12/13 00:11:49;;;;;;;20.48;8.48;;;11.40;94.10;;;;;;5067384;28;20067;-72
2021/12/13 00:14:43;;;;;;;13.80;8.05;;;11.40;94.00;;;;;;5066006;28;20507;-72
2021/12/13 00:17:16;;;;;;;17.25;7.68;;;11.40;94.10;;;;;;5060103;28;20567;-72
2021/12/13 00:19:50;;;;;;;9.30;5.40;;;11.30;94.10;;;;;;5065224;28;20017;-70
2021/12/13 00:22:36;;;;;;;15.82;7.38;;;11.30;94.20;;;;;;5065339;28;20024;-72
2021/12/13 00:25:08;;;;;;;11.57;6.93;;;11.30;94.10;;;;;;5065838;28;20094;-72
2021/12/13 00:27:43;;;;;;;13.98;8.55;;;11.30;94.30;;;;;;5052882;28;20021;-72
2021/12/13 00:30:22;;;;;;;16.08;8.82;;;11.30;94.30;;;;;;5067922;28;20021;-72
2021/12/13 00:33:18;;;;;;;13.93;8.73;;;11.30;94.30;;;;;;5068644;28;20075;-72
2021/12/13 00:35:59;;;;;;;15.52;9.48;;;11.30;94.40;;;;;;5069784;28;20503;-71
2021/12/13 00:38:29;;;;;;;14.07;6.97;;;11.30;94.50;;;;;;5070717;28;20033;-72
2021/12/13 00:41:02;;;;;;;18.00;8.43;;;11.30;94.50;;;;;;5071266;28;20013;-72
2021/12/13 00:43:34;;;;;;;16.95;9.68;;;11.30;94.60;;;;;;5069536;28;20103;-72
2021/12/13 00:46:04;;;;;;;13.98;8.65;;;11.30;94.60;;;;;;5069095;28;20039;-72
2021/12/13 00:48:32;;;;;;;17.98;9.48;;;11.30;94.70;;;;;;5053649;28;20024;-72
2021/12/13 00:51:08;;;;;;;17.50;9.30;;;11.30;94.70;;;;;;5069024;28;20032;-73
2021/12/13 00:53:38;;;;;;;11.43;6.40;;;11.30;94.80;;;;;;5072582;28;20636;-72
2021/12/13 00:56:42;;;;;;;13.68;6.88;;;11.30;94.70;;;;;;5068855;28;20028;-72
2021/12/13 00:59:30;;;;;;;14.55;7.70;;;11.30;94.70;;;;;;5068678;28;20499;-72
2021/12/13 01:02:05;;;;;;;12.77;6.65;;;11.20;94.70;;;;;;5069315;28;20028;-72
2021/12/13 01:05:00;;;;;;;12.13;7.32;;;11.10;94.80;;;;;;5068489;28;20036;-72
2021/12/13 01:08:04;;;;;;;13.02;6.78;;;11.10;94.90;;;;;;5068662;28;20028;-72
2021/12/13 01:10:39;;;;;;;11.88;7.35;;;11.10;94.80;;;;;;5069262;28;20024;-72
2021/12/13 01:13:12;;;;;;;13.63;7.50;;;11.20;94.80;;;;;;5071227;28;20415;-72
2021/12/13 01:15:49;;;;;;;15.15;8.50;;;11.10;94.90;;;;;;5068414;28;20017;-72
2021/12/13 01:18:27;;;;;;;17.60;9.10;;;11.10;95.00;;;;;;5070676;28;20074;-72
2021/12/13 01:21:16;;;;;;;19.40;9.57;;;11.00;95.10;;;;;;5072572;28;20441;-72
2021/12/13 01:23:51;;;;;;;16.20;9.90;;;11.00;95.20;;;;;;5070539;28;20072;-72
2021/12/13 01:26:38;;;;;;;17.48;9.88;;;10.90;95.30;;;;;;5070523;28;20082;-72
2021/12/13 01:29:07;;;;;;;20.27;10.93;;;10.80;95.50;;;;;;5067875;28;20062;-72
2021/12/13 01:31:42;;;;;;;18.65;11.75;;;10.80;95.70;;;;;;5068047;28;20024;-72
2021/12/13 01:34:09;;;;;;;18.67;12.05;;;10.80;95.80;;;;;;5068144;28;20074;-72
2021/12/13 01:36:45;;;;;;;24.33;13.45;;;10.80;95.90;;;;;;5068499;28;20017;-72
2021/12/13 01:39:17;;;;;;;23.02;12.13;;;10.80;95.90;;;;;;5071064;28;20036;-72
2021/12/13 01:41:54;;;;;;;22.92;12.65;;;10.80;96.00;;;;;;5070667;28;20021;-71
2021/12/13 01:44:25;;;;;;;23.13;14.05;;;10.80;95.90;;;;;;5067666;28;20040;-72
2021/12/13 01:47:05;;;;;;;23.45;13.65;;;10.90;96.00;;;;;;5066869;28;20021;-72
2021/12/13 01:49:37;;;;;;;20.02;13.07;;;10.90;96.00;;;;;;5068003;28;20081;-72
2021/12/13 01:52:15;;;;;;;20.77;14.10;;;10.90;96.00;;;;;;5067860;28;20392;-72
2021/12/13 01:54:41;;;;;;;20.80;13.32;;;10.90;96.00;;;;;;5067944;28;20051;-72
2021/12/13 01:57:23;;;;;;;20.45;13.20;;;10.90;96.00;;;;;;5070303;28;20029;-72
2021/12/13 02:00:01;;;;;;;23.67;14.20;;;11.00;95.90;;;;;;5070899;28;20537;-72
2021/12/13 02:02:47;;;;;;;20.27;14.25;;;11.00;95.90;;;;;;5070226;28;20032;-72
2021/12/13 02:05:26;;;;;;;20.30;13.98;;;11.10;95.90;;;;;;5069329;28;20025;-72
2021/12/13 02:08:00;;;;;;;22.20;13.70;;;11.00;95.90;;;;;;5068228;28;20021;-72
2021/12/13 02:10:41;;;;;;;22.13;13.10;;;11.00;95.90;;;;;;5067297;28;20338;-71
2021/12/13 02:13:21;;;;;;;23.10;13.57;;;11.00;96.30;;;;;;5069202;28;20086;-72
2021/12/13 02:18:40;;;;;;;;;;;11.10;95.90;;;;;;5053716;28;20032;-71
2021/12/13 02:21:12;;;;;;;25.65;15.98;;;11.00;95.90;;;;;;5070421;28;19996;-72
2021/12/13 02:23:42;;;;;;;22.13;15.63;;;11.00;95.90;;;;;;5071283;28;20039;-72
2021/12/13 02:26:09;;;;;;;21.60;14.53;;;11.00;96.00;;;;;;5069226;28;20064;-72
2021/12/13 02:28:38;;;;;;;19.83;13.15;;;11.10;96.00;;;;;;5056394;28;20024;-72
2021/12/13 02:31:21;;;;;;;20.52;12.85;;;11.00;96.00;;;;;;5066575;28;20109;-71
2021/12/13 02:33:53;;;;;;;23.65;13.45;;;11.10;96.00;;;;;;5067410;28;20499;-72
2021/12/13 02:36:33;;;;;;;19.00;12.07;;;11.00;95.90;;;;;;5068285;28;20031;-72
2021/12/13 02:39:07;;;;;;;18.47;12.13;;;11.00;95.90;;;;;;5068522;28;20048;-72
2021/12/13 02:41:33;;;;;;;25.23;12.90;;;11.00;96.20;;;;;;5080050;28;20302;-72
2021/12/13 02:44:10;;;;;;;19.60;12.75;;;11.00;95.80;;;;;;5066861;28;20024;-72
2021/12/13 02:46:37;;;;;;;23.50;12.10;;;11.10;95.80;;;;;;5066483;28;20029;-72
2021/12/13 02:49:08;;;;;;;22.73;12.85;;;11.00;95.70;;;;;;5066829;28;20032;-72
2021/12/13 02:51:39;;;;;;;19.35;11.57;;;11.00;95.70;;;;;;5066670;28;20029;-72
2021/12/13 02:54:16;;;;;;;22.52;12.60;;;11.00;95.70;;;;;;5069424;28;20063;-72
2021/12/13 02:56:46;;;;;;;19.88;11.95;;;11.00;95.70;;;;;;5068809;28;20028;-72
2021/12/13 02:59:16;;;;;;;18.23;11.80;;;11.00;95.70;;;;;;5066327;28;20070;-71
2021/12/13 03:02:12;;;;;;;16.48;10.88;;;11.00;95.70;;;;;;5067735;28;20040;-72
2021/12/13 03:04:38;;;;;;;16.42;10.23;;;11.00;95.60;;;;;;5063801;28;20485;-72
2021/12/13 03:07:12;;;;;;;20.98;11.50;;;11.00;95.60;;;;;;5065947;28;20035;-71
2021/12/13 03:09:41;;;;;;;20.00;12.13;;;11.00;95.60;;;;;;5066041;28;20017;-72
2021/12/13 03:12:11;;;;;;;19.85;12.05;;;11.00;95.60;;;;;;5068811;28;20059;-72
2021/12/13 03:14:41;;;;;;;19.20;11.35;;;11.00;95.60;;;;;;5070214;28;20064;-72
2021/12/13 03:17:15;;;;;;;17.00;9.95;;;10.90;95.60;;;;;;5066464;28;20013;-72
2021/12/13 03:19:41;;;;;;;19.60;11.98;;;11.00;95.60;;;;;;5060255;28;20043;-72
2021/12/13 03:23:04;;;;;;;21.63;11.90;;;11.00;95.60;;;;;;5066838;28;20021;-72
2021/12/13 03:25:50;;;;;;;17.30;12.23;;;11.00;95.60;;;;;;5019183;28;20487;-72
2021/12/13 03:28:39;;;;;;;23.30;12.90;;;11.00;95.60;;;;;;5027301;28;20034;-73
2021/12/13 03:31:22;;;;;;;22.40;13.05;;;11.00;95.60;;;;;;5026785;28;20029;-72
2021/12/13 03:33:57;;;;;;;20.33;12.68;;;11.00;95.60;;;;;;5026707;28;20036;-72
2021/12/13 03:36:42;;;;;;;19.00;12.48;;;11.00;95.60;;;;;;5026420;28;20095;-71
2021/12/13 03:39:11;;;;;;;20.13;13.00;;;10.90;95.60;;;;;;5022729;28;20069;-72
2021/12/13 03:41:41;;;;;;;17.95;12.90;;;10.90;95.50;;;;;;5028206;28;20025;-72
2021/12/13 03:44:10;;;;;;;16.38;11.15;;;11.00;95.50;;;;;;5010165;28;20115;-72
2021/12/13 03:46:37;;;;;;;17.23;11.07;;;10.90;95.40;;;;;;5026829;28;20041;-72
2021/12/13 03:49:07;;;;;;;17.33;11.00;;;10.90;95.40;;;;;;5026216;28;20120;-72
2021/12/13 03:51:40;;;;;;;19.00;11.75;;;11.00;95.40;;;;;;5027032;28;20053;-72
2021/12/13 03:54:11;;;;;;;20.33;12.82;;;11.00;95.40;;;;;;5026736;28;20152;-72
2021/12/13 03:56:42;;;;;;;;;;;10.90;95.40;;;;;;5027869;28;20516;-72
2021/12/13 03:59:10;;;;;;;;;;;11.00;95.30;;;;;;5047435;28;19962;-71
2021/12/13 04:01:44;;;;;;;19.17;13.30;;;10.90;95.30;;;;;;5066247;28;19904;-72
2021/12/13 04:04:30;;;;;;;13.82;8.20;;;10.90;95.30;;;;;;5065872;28;20039;-72
2021/12/13 04:07:05;;;;;;;16.42;10.40;;;10.90;95.30;;;;;;5066120;28;20032;-72
2021/12/13 04:09:34;;;;;;;17.63;11.43;;;10.90;95.30;;;;;;5065069;28;20021;-72
2021/12/13 04:12:05;;;;;;;20.98;12.80;;;10.90;95.30;;;;;;5073968;28;20055;-72
2021/12/13 04:14:38;;;;;;;21.30;14.07;;;10.90;95.30;;;;;;5072822;28;20099;-71
2021/12/13 04:17:56;;;;;;;23.23;14.30;;;10.90;95.30;;;;;;5069942;28;20036;-71
2021/12/13 04:20:28;;;;;;;20.75;13.55;;;10.90;95.20;;;;;;5069534;28;20033;-72
2021/12/13 04:23:00;;;;;;;19.60;14.27;;;10.90;95.20;;;;;;5069589;28;20021;-71
2021/12/13 04:25:31;;;;;;;24.13;14.77;;;10.90;95.20;;;;;;5069560;28;20044;-72
2021/12/13 04:28:06;;;;;;;17.88;10.55;;;10.90;95.10;;;;;;5071243;28;20029;-72
2021/12/13 04:30:42;;;;;;;22.92;13.43;;;10.90;95.00;;;;;;5056696;28;20032;-72
2021/12/13 04:33:30;;;;;;;14.75;10.38;;;10.90;94.90;;;;;;5071939;28;20056;-71
2021/12/13 04:36:00;;;;;;;18.98;12.15;;;10.80;94.90;;;;;;5077353;28;20032;-71
2021/12/13 04:38:48;;;;;;;19.27;13.20;;;10.80;94.80;;;;;;5071443;28;20487;-71
2021/12/13 04:41:24;;;;;;;24.75;13.82;;;10.80;94.90;;;;;;5069476;28;20279;-72
2021/12/13 04:44:05;;;;;;;22.70;12.93;;;10.80;94.90;;;;;;5070945;28;20099;-71
2021/12/13 04:46:36;;;;;;;14.98;8.63;;;10.80;94.90;;;;;;5068581;28;20098;-71
2021/12/13 04:49:14;;;;;;;20.80;13.68;;;10.80;95.00;;;;;;5075113;28;20108;-72
2021/12/13 04:51:51;;;;;;;21.88;13.85;;;10.80;94.90;;;;;;5055005;28;20021;-72
2021/12/13 04:54:17;;;;;;;19.83;13.82;;;10.80;95.00;;;;;;5071199;28;20028;-72
2021/12/13 04:56:44;;;;;;;18.95;12.93;;;10.80;95.00;;;;;;5071719;28;20446;-72
2021/12/13 04:59:13;;;;;;;12.85;8.98;;;10.80;95.00;;;;;;5070816;28;20021;-71
2021/12/13 05:01:40;;;;;;;18.92;12.27;;;10.80;94.80;;;;;;5071165;28;20021;-71
2021/12/13 05:04:08;;;;;;;17.23;10.38;;;10.70;94.70;;;;;;5068919;28;20029;-71
2021/12/13 05:06:40;;;;;;;17.45;10.43;;;10.70;94.60;;;;;;5067975;28;20036;-71
2021/12/13 05:09:10;;;;;;;13.30;9.10;;;10.70;94.60;;;;;;5071403;28;20075;-72
2021/12/13 05:11:42;;;;;;;14.93;9.77;;;10.70;94.60;;;;;;5071652;28;20553;-72
2021/12/13 05:14:13;;;;;;;15.18;9.77;;;10.60;94.60;;;;;;5068660;28;20032;-72
2021/12/13 05:16:51;;;;;;;15.73;10.25;;;10.60;94.60;;;;;;5068981;28;20090;-72
2021/12/13 05:19:34;;;;;;;19.52;11.68;;;10.60;94.60;;;;;;5069250;28;20403;-72
2021/12/13 05:22:10;;;;;;;17.05;10.85;;;10.60;94.60;;;;;;5067902;28;20071;-72
2021/12/13 05:25:03;;;;;;;17.25;10.55;;;10.50;94.60;;;;;;5060125;28;20032;-72
2021/12/13 05:27:41;;;;;;;19.75;10.52;;;10.50;94.60;;;;;;5069001;28;20025;-73
2021/12/13 05:30:19;;;;;;;17.02;10.88;;;10.50;94.60;;;;;;5069633;28;20041;-74
2021/12/13 05:32:57;;;;;;;17.48;10.75;;;10.50;94.60;;;;;;5071037;28;20043;-71
2021/12/13 05:35:40;;;;;;;17.30;11.50;;;10.50;94.60;;;;;;5067537;28;20492;-72
2021/12/13 05:38:24;;;;;;;18.52;11.20;;;10.50;94.60;;;;;;5071694;28;20033;-73
2021/12/13 05:40:56;;;;;;;18.50;11.48;;;10.50;94.60;;;;;;5068239;28;20050;-72
2021/12/13 05:43:29;;;;;;;19.65;10.90;;;10.50;94.60;;;;;;5069960;28;20671;-73
2021/12/13 05:46:12;;;;;;;21.45;11.88;;;10.40;94.60;;;;;;5067827;28;20044;-72
2021/12/13 05:48:48;;;;;;;16.35;10.50;;;10.40;94.50;;;;;;5069327;28;20147;-71
2021/12/13 05:51:24;;;;;;;19.42;11.90;;;10.50;94.60;;;;;;5072522;28;20399;-73
2021/12/13 05:54:13;;;;;;;16.88;10.95;;;10.40;94.60;;;;;;5075648;28;20021;-71
2021/12/13 05:57:16;;;;;;;18.67;11.43;;;10.40;95.00;;;;;;5072068;28;20032;-71
2021/12/13 05:59:58;;;;;;;20.77;11.63;;;10.40;94.60;;;;;;5066736;28;20049;-74
2021/12/13 06:02:54;;;;;;;17.27;10.63;;;10.40;94.60;;;;;;5072091;28;20032;-70
2021/12/13 06:05:30;;;;;;;18.15;10.95;;;10.40;94.70;;;;;;5067453;28;20452;-72
2021/12/13 06:08:04;;;;;;;14.32;9.57;;;10.40;94.70;;;;;;5067930;28;20028;-72
2021/12/13 06:10:57;;;;;;;18.58;9.63;;;10.40;94.70;;;;;;5068005;28;20024;-71
2021/12/13 06:13:42;;;;;;;17.40;10.90;;;10.40;94.70;;;;;;5052868;28;20052;-72
2021/12/13 06:16:09;;;;;;;18.85;10.40;;;10.40;94.70;;;;;;5067602;28;20055;-71
2021/12/13 06:18:58;;;;;;;19.77;11.38;;;10.30;94.70;;;;;;5068426;28;20024;-71
2021/12/13 06:21:42;;;;;;;22.73;11.63;;;10.40;94.70;;;;;;5068973;28;20032;-70
2021/12/13 06:24:10;;;;;;;18.85;11.30;;;10.30;94.80;;;;;;5066612;28;20036;-71
2021/12/13 06:26:37;;;;;;;18.23;10.63;;;10.30;94.80;;;;;;5068767;28;20035;-71
2021/12/13 06:29:06;;;;;;;21.52;10.55;;;10.30;94.80;;;;;;5067563;28;20047;-71
2021/12/13 06:31:41;;;;;;;20.05;13.02;;;10.30;94.80;;;;;;5064024;28;20063;-71
2021/12/13 06:34:12;;;;;;;17.23;10.02;;;10.30;94.80;;;;;;5067399;28;20823;-72
2021/12/13 06:36:47;;;;;;;18.27;10.98;;;10.30;94.80;;;;;;5067470;28;20024;-71
2021/12/13 06:39:18;;;;;;;16.90;8.48;;;10.20;94.80;;;;;;5069079;28;20107;-71
2021/12/13 06:41:49;;;;;;;;;;;10.20;94.80;;;;;;5070604;28;20500;-68
2021/12/13 06:44:26;;;;;;;16.90;9.23;;;10.30;94.70;;;;;;5067591;28;19908;-72
2021/12/13 06:46:54;;;;;;;14.45;8.93;;;10.20;94.70;;;;;;5066829;28;20024;-71
2021/12/13 06:49:48;;;;;;;14.68;9.07;;;10.20;94.80;;;;;;5073459;28;20025;-71
2021/12/13 06:52:14;;;;;;;15.48;8.45;;;10.20;94.80;;;;;;5067040;28;20467;-71
2021/12/13 06:55:07;;;;;;;14.45;8.30;;;10.20;94.80;;;;;;5067809;28;20048;-72
2021/12/13 06:57:46;;;;;;;14.35;8.50;;;10.10;94.70;;;;;;5058503;28;20059;-72
2021/12/13 07:00:14;;;;;;;14.48;8.48;;;10.10;94.70;;;;;;5069233;28;20067;-71
2021/12/13 07:02:50;;;;;;;14.23;8.65;;;10.10;94.70;;;;;;5070271;28;20035;-71
2021/12/13 07:05:24;;;;;;;15.88;7.97;;;10.10;94.80;;;;;;5066695;28;20036;-71
2021/12/13 07:07:59;;;;;;;10.98;6.25;;;10.10;94.70;;;;;;5068688;28;20027;-70
2021/12/13 07:10:37;;;;;;;12.43;6.95;;;10.10;94.60;;;;;;5065838;28;20040;-70
2021/12/13 07:13:09;;;;;;;12.45;7.60;;;10.10;94.70;;;;;;5043861;28;20047;-71
2021/12/13 07:15:49;;;;;;;13.18;7.93;;;10.00;94.60;;;;;;5038121;28;20489;-70
2021/12/13 07:18:19;;;;;;;12.98;7.72;;;10.00;94.60;;;;;;5047973;28;20033;-70
2021/12/13 07:20:54;;;;;;;13.80;7.22;;;10.00;94.60;;;;;;5048311;28;20452;-70
2021/12/13 07:23:21;;;;;;;11.55;6.93;;;9.90;94.60;;;;;;5040835;28;20029;-70
2021/12/13 07:25:49;;;;;;;10.75;6.85;;;9.90;94.60;;;;;;5048768;28;20510;-71
2021/12/13 07:28:37;;;;;;;8.75;5.65;;;9.80;94.60;;;;;;5048125;28;20052;-71
2021/12/13 07:31:06;;;;;;;10.10;6.15;;;9.80;94.70;;;;;;5035424;28;20399;-71
2021/12/13 07:33:42;;;;;;;8.82;5.60;;;9.70;94.70;;;;;;5042519;28;20025;-72
2021/12/13 07:36:29;;;;;;;12.52;7.10;;;9.60;94.70;;;;;;5045506;28;20037;-75
2021/12/13 07:38:58;;;;;;;10.27;6.53;;;9.50;94.80;;;;;;5050562;28;20573;-74
2021/12/13 07:41:27;;;;;;;11.15;7.18;;;9.40;94.90;;;;;;5048427;28;20032;-73
2021/12/13 07:43:53;;;;;;;13.10;8.25;;;9.40;95.00;;;;;;5050452;28;20035;-71
2021/12/13 07:46:19;;;;;;;13.27;7.43;;;9.30;95.00;;;;;;5052399;28;20045;-71
2021/12/13 07:48:45;;;;;;;16.73;7.85;;;9.20;95.10;;;;;;5046666;28;20038;-71
2021/12/13 07:51:20;;;;;;;15.55;7.95;;;9.10;95.50;;;;;;5048453;28;20039;-71
2021/12/13 07:53:57;;;;;;;14.32;7.60;;;9.00;95.20;;;;;;5049002;28;20029;-70
2021/12/13 07:56:29;;;;;;;17.20;8.40;;;9.00;95.30;;;;;;5047678;28;20057;-70
2021/12/13 07:59:14;;;;;;;14.63;8.40;;;8.90;95.30;;;;;;5045856;28;20395;-72
2021/12/13 08:01:59;;;;;;;13.23;8.00;;;8.90;95.50;;;;;;5045851;28;20021;-72
2021/12/13 08:04:43;;;;;;;14.30;8.07;;;8.80;95.50;;;;;;5053700;28;20017;-72
2021/12/13 08:07:13;;;;;;;13.80;8.48;;;8.80;95.50;;;;;;5046347;28;20039;-72
2021/12/13 08:10:07;;;;;;;14.02;8.75;;;8.70;95.60;;;;;;5046114;28;20040;-72
2021/12/13 08:12:40;;;;;;;15.43;9.32;;;8.70;95.60;;;;;;5011144;28;20045;-72
2021/12/13 08:15:28;;;;;;;18.65;10.50;;;8.80;95.90;;;;;;5028623;28;20034;-72
2021/12/13 08:18:04;;;;;;;15.50;9.43;;;8.80;96.10;;;;;;5029928;28;20021;-72
2021/12/13 08:20:46;;;;;;;16.45;9.70;;;8.90;96.10;;;;;;5027051;28;20084;-70
2021/12/13 08:23:19;;;;;;;17.75;9.63;;;9.00;96.20;;;;;;5025640;28;20033;-70
2021/12/13 08:25:48;;;;;;;14.43;9.27;;;9.10;96.20;;;;;;5026547;28;20039;-70
2021/12/13 08:28:20;;;;;;;16.38;9.98;;;9.10;96.00;;;;;;5026460;28;20392;-71
2021/12/13 08:30:52;;;;;;;15.43;9.68;;;9.20;95.90;;;;;;5025859;28;20021;-72
2021/12/13 08:33:38;;;;;;;14.52;9.13;;;9.20;95.50;;;;;;5028364;28;20029;-72
2021/12/13 08:36:17;;;;;;;13.20;8.95;;;9.30;95.20;;;;;;5028633;28;20038;-72
2021/12/13 08:38:54;;;;;;;14.93;8.02;;;9.40;95.10;;;;;;5027955;28;20103;-71
2021/12/13 08:41:22;;;;;;;12.73;7.88;;;9.40;94.80;;;;;;5025747;28;20068;-71
2021/12/13 08:43:54;;;;;;;13.75;8.45;;;9.50;94.60;;;;;;5026086;28;20094;-72
2021/12/13 08:46:43;;;;;;;14.90;9.18;;;9.50;94.50;;;;;;5017006;28;20064;-72
2021/12/13 08:49:22;;;;;;;12.45;7.43;;;9.60;94.50;;;;;;5026901;28;20048;-70
2021/12/13 08:51:50;;;;;;;12.98;7.53;;;9.60;94.30;;;;;;5025850;28;20057;-70
2021/12/13 08:54:17;;;;;;;16.35;7.88;;;9.70;94.20;;;;;;5028209;28;20053;-71
2021/12/13 08:56:47;;;;;;;12.90;7.47;;;9.70;94.20;;;;;;5029485;28;20034;-71
2021/12/13 08:59:26;;;;;;;11.98;7.80;;;9.80;94.00;;;;;;5029424;28;20677;-70
2021/12/13 09:02:11;;;;;;;16.13;7.95;;;9.80;93.80;;;;;;5029181;28;20037;-72
2021/12/13 09:04:53;;;;;;;13.60;7.72;;;9.90;93.80;;;;;;5029735;28;20413;-71
2021/12/13 09:07:22;;;;;;;10.15;7.05;;;9.90;93.50;;;;;;5029513;28;20032;-71
2021/12/13 09:09:48;;;;;;;11.93;7.85;;;10.00;93.40;;;;;;5029290;28;20025;-71
2021/12/13 09:12:24;;;;;;;13.25;7.07;;;10.10;93.30;;;;;;5060009;28;20048;-71
2021/12/13 09:14:53;;;;;;;10.25;7.00;;;10.10;93.20;;;;;;5059191;28;20028;-72
2021/12/13 09:17:32;;;;;;;9.55;5.97;;;10.20;92.90;;;;;;5068875;28;20549;-72
2021/12/13 09:20:22;;;;;;;9.65;6.38;;;10.30;92.70;;;;;;5068827;28;20021;-72
2021/12/13 09:22:55;;;;;;;9.15;5.97;;;10.30;92.40;;;;;;5068945;28;20025;-71
2021/12/13 09:25:30;;;;;;;9.85;6.18;;;10.40;92.10;;;;;;5068695;28;20044;-72
2021/12/13 09:28:24;;;;;;;9.45;6.07;;;10.50;92.10;;;;;;5068629;28;20418;-71
2021/12/13 09:30:59;;;;;;;11.15;6.53;;;10.50;92.20;;;;;;5052470;28;20029;-71
2021/12/13 09:33:33;;;;;;;12.32;8.60;;;10.60;92.00;;;;;;5072132;28;20079;-70
2021/12/13 09:36:28;;;;;;;8.00;5.32;;;10.60;92.00;;;;;;5075417;28;20097;-70
2021/12/13 09:39:12;;;;;;;11.38;5.88;;;10.70;91.70;;;;;;5072423;28;20027;-71
2021/12/13 09:41:57;;;;;;;8.13;5.10;;;10.70;91.50;;;;;;5072214;28;20036;-71
2021/12/13 09:44:55;;;;;;;10.23;6.60;;;10.70;91.70;;;;;;5057937;28;20108;-71
2021/12/13 09:47:38;;;;;;;9.18;6.05;;;10.70;91.40;;;;;;5068056;28;20447;-70
2021/12/13 09:50:15;;;;;;;8.55;6.03;;;10.80;91.40;;;;;;5069018;28;20036;-70
2021/12/13 09:52:58;;;;;;;7.57;5.03;;;10.80;91.40;;;;;;5068598;28;20332;-70
2021/12/13 09:55:33;;;;;;;8.82;6.22;;;10.90;90.90;;;;;;5067954;28;20111;-70
2021/12/13 09:58:14;;;;;;;7.07;4.68;;;10.90;90.90;;;;;;5068367;28;20040;-70
2021/12/13 10:01:01;;;;;;;8.05;5.18;;;11.00;90.90;;;;;;5054705;28;20488;-70
2021/12/13 10:03:31;;;;;;;8.00;5.60;;;11.10;90.70;;;;;;5084032;28;20032;-70
2021/12/13 10:06:05;;;;;;;8.57;4.68;;;11.10;90.60;;;;;;5072293;28;20033;-70
2021/12/13 10:08:45;;;;;;;8.65;5.60;;;11.10;90.80;;;;;;5068795;28;20116;-71
2021/12/13 10:11:19;;;;;;;8.20;4.85;;;11.10;90.90;;;;;;5067563;28;20076;-72
2021/12/13 10:13:47;;;;;;;6.80;4.15;;;11.10;90.80;;;;;;5062196;28;20021;-70
2021/12/13 10:16:19;;;;;;;7.68;5.05;;;11.10;90.90;;;;;;5054996;28;20057;-70
2021/12/13 10:18:47;;;;;;;9.18;5.20;;;11.10;90.90;;;;;;5068137;28;20086;-70
2021/12/13 10:21:26;;;;;;;8.32;5.85;;;11.10;90.90;;;;;;5070539;28;20112;-71
2021/12/13 10:23:59;;;;;;;9.50;5.97;;;11.10;91.10;;;;;;5071439;28;20027;-72
2021/12/13 10:26:31;;;;;;;6.05;3.75;;;11.10;90.90;;;;;;5067107;28;20503;-71
2021/12/13 10:29:00;;;;;;;5.22;3.47;;;11.00;90.80;;;;;;5067727;28;20017;-72
2021/12/13 10:31:38;;;;;;;5.53;3.45;;;11.00;90.30;;;;;;5067835;28;20055;-72
2021/12/13 10:34:09;;;;;;;5.43;2.88;;;11.00;90.60;;;;;;5067775;28;20484;-72
2021/12/13 10:36:37;;;;;;;;;;;10.90;90.20;;;;;;5052592;28;20020;-72
2021/12/13 10:39:20;;;;;;;8.70;2.60;;;10.90;90.40;;;;;;5071214;28;19904;-72
2021/12/13 10:41:48;;;;;;;5.93;3.00;;;10.90;90.30;;;;;;5070973;28;20028;-72
2021/12/13 10:44:25;;;;;;;3.53;2.00;;;10.90;90.20;;;;;;5068191;28;20127;-72
2021/12/13 10:46:57;;;;;;;4.47;2.15;;;10.80;90.30;;;;;;5069267;28;20066;-72
2021/12/13 10:49:25;;;;;;;4.72;2.40;;;10.90;90.20;;;;;;5067187;28;20505;-72
2021/12/13 10:52:09;;;;;;;4.50;2.40;;;10.90;90.40;;;;;;5067378;28;20025;-72
2021/12/13 10:54:40;;;;;;;5.97;3.33;;;10.90;90.10;;;;;;5051682;28;20025;-72
2021/12/13 10:57:35;;;;;;;5.65;2.55;;;10.90;90.20;;;;;;5069938;28;20043;-70
2021/12/13 11:00:04;;;;;;;4.38;2.38;;;11.00;90.20;;;;;;5059152;28;20496;-70
2021/12/13 11:02:34;;;;;;;4.88;3.03;;;11.00;90.00;;;;;;5069204;28;20431;-69
2021/12/13 11:05:15;;;;;;;7.60;3.40;;;11.00;90.00;;;;;;5067550;28;20068;-71
2021/12/13 11:07:43;;;;;;;5.28;3.08;;;10.90;89.80;;;;;;5066670;28;20048;-71
2021/12/13 11:10:22;;;;;;;4.95;3.20;;;11.00;89.90;;;;;;5066987;28;20024;-71
2021/12/13 11:12:52;;;;;;;4.82;3.20;;;10.90;89.60;;;;;;5066944;28;20044;-71
2021/12/13 11:15:31;;;;;;;4.95;3.10;;;10.90;89.40;;;;;;5068882;28;20077;-71
2021/12/13 11:17:59;;;;;;;5.15;3.10;;;10.90;89.50;;;;;;5070471;28;20107;-71
2021/12/13 11:20:33;;;;;;;6.85;3.78;;;10.80;90.00;;;;;;5066333;28;20081;-70
2021/12/13 11:22:59;;;;;;;5.35;3.60;;;10.80;90.10;;;;;;5065143;28;20025;-71
2021/12/13 11:25:34;;;;;;;6.32;3.03;;;10.80;90.10;;;;;;5072507;28;20041;-70
2021/12/13 11:28:00;;;;;;;6.07;3.67;;;10.80;90.10;;;;;;5064468;28;20405;-70
2021/12/13 11:30:32;;;;;;;5.72;3.65;;;10.80;90.20;;;;;;5068905;28;20040;-70
2021/12/13 11:32:58;;;;;;;6.95;4.28;;;10.80;90.30;;;;;;5082336;28;20491;-69
2021/12/13 11:35:48;;;;;;;6.35;3.80;;;10.80;90.20;;;;;;5069728;28;20075;-69
2021/12/13 11:38:26;;;;;;;8.23;4.38;;;10.80;90.40;;;;;;5070812;28;20028;-71
2021/12/13 11:41:06;;;;;;;7.85;4.82;;;10.80;90.40;;;;;;5070626;28;20017;-72
2021/12/13 11:44:03;;;;;;;7.57;5.05;;;10.90;90.70;;;;;;5071231;28;20023;-71
2021/12/13 11:46:41;;;;;;;10.55;6.25;;;10.90;90.40;;;;;;5070539;28;20103;-72
2021/12/13 11:49:47;;;;;;;7.85;5.78;;;10.90;90.30;;;;;;5069101;28;20024;-70
2021/12/13 11:52:36;;;;;;;7.00;4.90;;;10.80;90.60;;;;;;5002012;28;20050;-70
2021/12/13 11:58:13;;;;;;;5.88;4.18;;;10.90;90.20;;;;;;5064728;28;20429;-70
2021/12/13 12:01:10;;;;;;;8.02;4.75;;;11.00;90.10;;;;;;5050791;28;20154;-70
2021/12/13 12:04:13;;;;;;;6.45;4.78;;;11.00;90.10;;;;;;5063213;28;20078;-71
2021/12/13 12:07:12;;;;;;;6.75;5.15;;;11.00;90.10;;;;;;5048560;28;20029;-72
2021/12/13 12:10:22;;;;;;;7.10;5.03;;;11.00;90.10;;;;;;5048893;28;20048;-71
2021/12/13 12:12:53;;;;;;;6.93;4.93;;;11.00;90.20;;;;;;5068883;28;20024;-71
2021/12/13 12:15:22;;;;;;;7.45;5.30;;;11.00;90.10;;;;;;5063578;28;20032;-71
2021/12/13 12:17:50;;;;;;;9.57;5.68;;;11.00;90.10;;;;;;5064558;28;20124;-71
2021/12/13 12:20:22;;;;;;;8.63;5.55;;;11.00;90.10;;;;;;5060835;28;20102;-71
2021/12/13 12:22:58;;;;;;;7.15;5.60;;;11.00;90.10;;;;;;5063166;28;20440;-71
2021/12/13 12:25:30;;;;;;;7.53;5.60;;;10.90;90.50;;;;;;5052965;28;20115;-71
2021/12/13 12:28:01;;;;;;;8.32;5.07;;;10.90;90.30;;;;;;5063459;28;20078;-72
2021/12/13 12:30:31;;;;;;;8.18;5.68;;;10.90;90.30;;;;;;5048947;28;20082;-71
2021/12/13 12:33:06;;;;;;;8.80;5.45;;;10.80;90.10;;;;;;5051748;28;20029;-72
2021/12/13 12:35:36;;;;;;;6.57;4.55;;;10.80;90.20;;;;;;5052005;28;20037;-72
2021/12/13 12:38:37;;;;;;;9.85;6.03;;;10.80;90.20;;;;;;5055978;28;20020;-71
2021/12/13 12:41:12;;;;;;;8.15;5.53;;;10.70;90.40;;;;;;5055019;28;20068;-71
2021/12/13 12:43:41;;;;;;;9.15;5.70;;;10.70;90.70;;;;;;5051197;28;20025;-71
2021/12/13 12:46:13;;;;;;;8.38;5.88;;;10.70;90.70;;;;;;5056816;28;20037;-71
2021/12/13 12:48:43;;;;;;;9.57;6.00;;;10.70;90.80;;;;;;5063975;28;20076;-71
2021/12/13 12:51:21;;;;;;;11.02;6.50;;;10.70;90.80;;;;;;5054834;28;20039;-71
2021/12/13 12:53:59;;;;;;;9.15;7.22;;;10.70;90.90;;;;;;5064815;28;20523;-71
2021/12/13 12:56:32;;;;;;;9.55;7.45;;;10.70;91.10;;;;;;5051240;28;20048;-70
2021/12/13 12:59:18;;;;;;;9.45;6.80;;;10.70;90.90;;;;;;5061918;28;20024;-71
2021/12/13 13:01:49;;;;;;;10.15;7.72;;;10.70;90.80;;;;;;5059417;28;20025;-71
2021/12/13 13:04:25;;;;;;;9.85;7.47;;;10.70;90.80;;;;;;5062457;28;20423;-71
2021/12/13 13:07:16;;;;;;;11.65;7.57;;;10.70;91.00;;;;;;5059837;28;20024;-70
2021/12/13 13:09:42;;;;;;;11.23;8.18;;;10.70;91.20;;;;;;5036837;28;20263;-71
2021/12/13 13:12:16;;;;;;;11.70;8.18;;;10.70;91.20;;;;;;5050193;28;20028;-71
2021/12/13 13:14:54;;;;;;;11.15;8.00;;;10.70;90.90;;;;;;5054528;28;20023;-71
2021/12/13 13:17:24;;;;;;;9.77;7.88;;;10.70;90.90;;;;;;5042498;28;20044;-71
2021/12/13 13:19:52;;;;;;;11.18;7.32;;;10.70;90.90;;;;;;5047687;28;20061;-71
2021/12/13 13:22:33;;;;;;;8.57;6.93;;;10.70;91.20;;;;;;5040624;28;20036;-71
2021/12/13 13:25:12;;;;;;;9.80;6.70;;;10.80;91.40;;;;;;5046937;28;20053;-71
2021/12/13 13:27:41;;;;;;;10.48;7.53;;;10.80;91.10;;;;;;5046333;28;20518;-70
2021/12/13 13:30:22;;;;;;;10.25;7.60;;;10.80;90.90;;;;;;5051225;28;20021;-71
2021/12/13 13:32:48;;;;;;;10.93;8.52;;;10.70;90.90;;;;;;5037332;28;20104;-71